createdAt,value
2018-12-29T00:00:47.586Z,102287.34
2018-12-29T00:01:49.522Z,102285.11
2018-12-29T00:02:51.462Z,102285.30
2018-12-29T00:03:53.493Z,102280.45
2018-12-29T00:04:55.473Z,102275.62
2018-12-29T00:05:57.420Z,102274.88
2018-12-29T00:06:59.357Z,102275.99
2018-12-29T00:08:01.302Z,102271.34
2018-12-29T00:09:04.511Z,102267.44
2018-12-29T00:10:06.485Z,102267.63
2018-12-29T00:11:08.423Z,102265.58
2018-12-29T00:12:12.174Z,102261.30
2018-12-29T00:13:14.277Z,102261.67
2018-12-29T00:14:16.309Z,102263.91
2018-12-29T00:15:18.373Z,102263.53
2018-12-29T00:16:20.400Z,102262.60
2018-12-29T00:17:22.482Z,102262.97
2018-12-29T00:18:24.490Z,102261.12
2018-12-29T00:19:26.496Z,102260.19
2018-12-29T00:20:28.522Z,102260.00
2018-12-29T00:21:30.551Z,102261.67
2018-12-29T00:22:32.559Z,102262.97
2018-12-29T00:23:34.500Z,102259.81
2018-12-29T00:24:36.456Z,102264.65
2018-12-29T00:25:38.431Z,102261.48
2018-12-29T00:26:40.386Z,102259.44
2018-12-29T00:27:42.328Z,102262.42
2018-12-29T00:28:44.278Z,102263.34
2018-12-29T00:29:46.236Z,102264.83
2018-12-29T00:30:48.204Z,102260.37
2018-12-29T00:31:50.166Z,102265.58
2018-12-29T00:32:52.190Z,102268.19
2018-12-29T00:33:54.312Z,102264.28
2018-12-29T00:34:56.275Z,102266.88
2018-12-29T00:35:58.238Z,102263.53
2018-12-29T00:37:00.183Z,102260.37
2018-12-29T00:38:02.108Z,102260.74
2018-12-29T00:39:05.742Z,102262.05
2018-12-29T00:40:07.757Z,102259.63
2018-12-29T00:41:09.722Z,102258.52
2018-12-29T00:42:11.657Z,102265.20
2018-12-29T00:43:13.630Z,102264.28
2018-12-29T00:44:15.640Z,102262.42
2018-12-29T00:45:17.591Z,102262.60
2018-12-29T00:46:19.564Z,102264.83
2018-12-29T00:47:21.570Z,102266.14
2018-12-29T00:48:26.746Z,102260.74
2018-12-29T00:49:28.682Z,102259.44
2018-12-29T00:50:30.626Z,102261.30
2018-12-29T00:51:35.607Z,102260.00
2018-12-29T00:52:37.554Z,102260.00
2018-12-29T00:53:42.740Z,102262.05
2018-12-29T00:54:44.678Z,102252.94
2018-12-29T00:55:46.642Z,102252.94
2018-12-29T00:56:48.613Z,102252.19
2018-12-29T00:57:50.571Z,102252.56
2018-12-29T00:58:52.500Z,102253.86
2018-12-29T00:59:54.447Z,102254.42
2018-12-29T01:00:56.455Z,102255.72
2018-12-29T01:01:58.433Z,102256.09
2018-12-29T01:03:00.360Z,102257.39
2018-12-29T01:04:02.322Z,102256.09
2018-12-29T01:05:04.283Z,102257.95
2018-12-29T01:06:06.285Z,102253.86
2018-12-29T01:07:08.514Z,102254.79
2018-12-29T01:08:10.504Z,102254.98
2018-12-29T01:09:12.451Z,102256.09
2018-12-29T01:10:14.399Z,102260.92
2018-12-29T01:11:16.408Z,102253.86
2018-12-29T01:12:18.388Z,102259.06
2018-12-29T01:13:20.349Z,102258.88
2018-12-29T01:14:22.298Z,102260.55
2018-12-29T01:15:24.227Z,102257.39
2018-12-29T01:16:26.161Z,102262.23
2018-12-29T01:17:29.523Z,102260.92
2018-12-29T01:18:31.462Z,102264.83
2018-12-29T01:19:33.429Z,102262.60
2018-12-29T01:20:35.359Z,102261.30
2018-12-29T01:21:37.311Z,102267.99
2018-12-29T01:22:39.366Z,102263.72
2018-12-29T01:23:41.381Z,102267.99
2018-12-29T01:24:43.521Z,102270.78
2018-12-29T01:25:45.533Z,102273.76
2018-12-29T01:26:47.469Z,102270.59
2018-12-29T01:27:49.514Z,102272.27
2018-12-29T01:28:51.514Z,102275.44
2018-12-29T01:29:53.453Z,102273.20
2018-12-29T01:30:55.492Z,102270.59
2018-12-29T01:31:57.441Z,102270.97
2018-12-29T01:32:59.421Z,102272.83
2018-12-29T01:34:01.373Z,102270.59
2018-12-29T01:35:03.410Z,102273.39
2018-12-29T01:36:05.433Z,102275.06
2018-12-29T01:37:07.457Z,102277.48
2018-12-29T01:38:09.446Z,102275.25
2018-12-29T01:39:11.463Z,102269.11
2018-12-29T01:40:13.391Z,102281.39
2018-12-29T01:41:15.391Z,102274.88
2018-12-29T01:42:17.373Z,102281.39
2018-12-29T01:43:19.375Z,102281.02
2018-12-29T01:44:21.622Z,102277.11
2018-12-29T01:45:23.670Z,102273.58
2018-12-29T01:46:25.607Z,102266.69
2018-12-29T01:47:27.549Z,102266.69
2018-12-29T01:48:29.530Z,102274.69
2018-12-29T01:49:31.476Z,102266.14
2018-12-29T01:50:33.875Z,102262.23
2018-12-29T01:51:35.877Z,102261.86
2018-12-29T01:52:37.888Z,102264.46
2018-12-29T01:53:39.863Z,102263.53
2018-12-29T01:54:41.800Z,102266.69
2018-12-29T01:55:43.761Z,102258.14
2018-12-29T01:56:45.711Z,102262.60
2018-12-29T01:57:47.713Z,102259.25
2018-12-29T01:58:49.691Z,102256.47
2018-12-29T01:59:51.637Z,102261.48
2018-12-29T02:00:53.648Z,102258.32
2018-12-29T02:01:58.849Z,102254.79
2018-12-29T02:03:00.876Z,102258.70
2018-12-29T02:04:02.844Z,102258.14
2018-12-29T02:05:04.965Z,102253.30
2018-12-29T02:06:06.962Z,102257.58
2018-12-29T02:07:08.904Z,102257.95
2018-12-29T02:08:10.855Z,102260.74
2018-12-29T02:09:12.886Z,102261.86
2018-12-29T02:10:15.153Z,102262.05
2018-12-29T02:11:17.121Z,102259.81
2018-12-29T02:12:19.134Z,102265.95
2018-12-29T02:13:21.074Z,102262.23
2018-12-29T02:14:23.018Z,102259.81
2018-12-29T02:15:25.014Z,102255.53
2018-12-29T02:16:27.015Z,102257.95
2018-12-29T02:17:29.032Z,102260.37
2018-12-29T02:18:31.042Z,102258.14
2018-12-29T02:19:34.264Z,102252.75
2018-12-29T02:20:36.222Z,102250.70
2018-12-29T02:21:38.170Z,102260.55
2018-12-29T02:22:40.100Z,102256.09
2018-12-29T02:23:42.038Z,102259.25
2018-12-29T02:24:44.020Z,102260.19
2018-12-29T02:25:45.976Z,102255.72
2018-12-29T02:26:47.940Z,102255.72
2018-12-29T02:27:49.892Z,102259.25
2018-12-29T02:28:51.845Z,102258.33
2018-12-29T02:29:53.852Z,102263.53
2018-12-29T02:30:55.808Z,102265.02
2018-12-29T02:31:57.746Z,102261.48
2018-12-29T02:32:59.704Z,102253.12
2018-12-29T02:34:01.835Z,102257.02
2018-12-29T02:35:03.914Z,102257.02
2018-12-29T02:36:05.995Z,102255.16
2018-12-29T02:37:07.965Z,102251.26
2018-12-29T02:38:09.984Z,102257.02
2018-12-29T02:39:11.920Z,102254.42
2018-12-29T02:40:13.918Z,102254.42
2018-12-29T02:41:15.852Z,102254.42
2018-12-29T02:42:17.853Z,102258.33
2018-12-29T02:43:19.795Z,102249.40
2018-12-29T02:44:21.745Z,102256.09
2018-12-29T02:45:33.107Z,102256.09
2018-12-29T02:46:29.964Z,102251.81
2018-12-29T02:47:31.965Z,102254.23
2018-12-29T02:48:33.911Z,102251.26
2018-12-29T02:49:35.880Z,102252.56
2018-12-29T02:50:39.908Z,102253.31
2018-12-29T02:51:41.615Z,102255.16
2018-12-29T02:52:45.380Z,102249.40
2018-12-29T02:53:47.395Z,102258.70
2018-12-29T02:54:49.383Z,102256.09
2018-12-29T02:55:51.381Z,102251.26
2018-12-29T02:56:53.336Z,102252.75
2018-12-29T02:57:55.396Z,102249.95
2018-12-29T02:58:57.366Z,102251.26
2018-12-29T02:59:59.316Z,102252.94
2018-12-29T03:01:01.284Z,102257.02
2018-12-29T03:02:03.331Z,102252.19
2018-12-29T03:03:05.272Z,102250.89
2018-12-29T03:04:07.227Z,102251.26
2018-12-29T03:05:09.193Z,102248.09
2018-12-29T03:06:11.164Z,102252.94
2018-12-29T03:07:13.170Z,102244.75
2018-12-29T03:08:15.190Z,102252.94
2018-12-29T03:09:17.140Z,102248.84
2018-12-29T03:10:19.107Z,102249.77
2018-12-29T03:11:21.099Z,102252.94
2018-12-29T03:12:23.038Z,102249.40
2018-12-29T03:13:24.979Z,102243.45
2018-12-29T03:14:27.006Z,102241.96
2018-12-29T03:15:29.012Z,102238.61
2018-12-29T03:16:30.968Z,102237.69
2018-12-29T03:17:32.912Z,102234.15
2018-12-29T03:18:34.930Z,102237.69
2018-12-29T03:19:36.850Z,102241.96
2018-12-29T03:20:38.827Z,102232.84
2018-12-29T03:21:40.867Z,102235.08
2018-12-29T03:22:42.906Z,102229.87
2018-12-29T03:23:44.946Z,102231.73
2018-12-29T03:24:46.878Z,102238.98
2018-12-29T03:25:48.814Z,102235.45
2018-12-29T03:26:50.796Z,102235.08
2018-12-29T03:27:52.760Z,102233.22
2018-12-29T03:28:54.741Z,102235.45
2018-12-29T03:29:56.762Z,102225.41
2018-12-29T03:30:59.243Z,102235.45
2018-12-29T03:32:01.312Z,102236.94
2018-12-29T03:33:03.372Z,102236.38
2018-12-29T03:34:05.392Z,102236.38
2018-12-29T03:35:07.428Z,102239.36
2018-12-29T03:36:09.397Z,102232.29
2018-12-29T03:37:11.429Z,102233.41
2018-12-29T03:38:13.472Z,102232.11
2018-12-29T03:39:20.477Z,102223.73
2018-12-29T03:40:22.474Z,102226.71
2018-12-29T03:41:24.421Z,102228.39
2018-12-29T03:42:30.919Z,102228.02
2018-12-29T03:43:30.139Z,102223.18
2018-12-29T03:44:32.339Z,102226.34
2018-12-29T03:45:34.271Z,102231.17
2018-12-29T03:46:36.218Z,102224.11
2018-12-29T03:47:38.214Z,102223.73
2018-12-29T03:48:40.153Z,102223.36
2018-12-29T03:49:42.202Z,102220.20
2018-12-29T03:50:44.203Z,102225.78
2018-12-29T03:51:46.257Z,102229.31
2018-12-29T03:52:48.259Z,102225.78
2018-12-29T03:53:50.269Z,102215.92
2018-12-29T03:54:52.217Z,102221.51
2018-12-29T03:55:54.174Z,102218.53
2018-12-29T03:56:56.189Z,102215.55
2018-12-29T03:57:58.171Z,102214.44
2018-12-29T03:59:02.341Z,102212.39
2018-12-29T04:00:04.285Z,102212.39
2018-12-29T04:01:06.295Z,102205.52
2018-12-29T04:02:08.303Z,102208.48
2018-12-29T04:03:10.789Z,102201.98
2018-12-29T04:04:12.814Z,102194.17
2018-12-29T04:05:14.763Z,102198.45
2018-12-29T04:06:16.725Z,102191.56
2018-12-29T04:07:18.743Z,102193.23
2018-12-29T04:08:20.709Z,102194.36
2018-12-29T04:09:22.733Z,102197.52
2018-12-29T04:10:24.684Z,102194.91
2018-12-29T04:11:26.684Z,102199.75
2018-12-29T04:12:28.650Z,102207.94
2018-12-29T04:13:30.623Z,102200.30
2018-12-29T04:14:32.593Z,102206.44
2018-12-29T04:15:34.592Z,102206.44
2018-12-29T04:16:36.630Z,102201.23
2018-12-29T04:17:38.621Z,102206.81
2018-12-29T04:18:40.599Z,102208.48
2018-12-29T04:19:42.542Z,102204.95
2018-12-29T04:20:44.581Z,102213.33
2018-12-29T04:21:46.529Z,102211.47
2018-12-29T04:22:48.508Z,102213.70
2018-12-29T04:23:50.561Z,102213.70
2018-12-29T04:24:52.573Z,102220.20
2018-12-29T04:25:54.506Z,102220.58
2018-12-29T04:26:56.466Z,102212.02
2018-12-29T04:27:58.409Z,102216.86
2018-12-29T04:29:00.431Z,102219.83
2018-12-29T04:30:02.376Z,102217.05
2018-12-29T04:31:04.339Z,102215.92
2018-12-29T04:32:06.366Z,102217.23
2018-12-29T04:33:08.381Z,102222.44
2018-12-29T04:34:10.393Z,102223.18
2018-12-29T04:35:12.329Z,102218.91
2018-12-29T04:36:14.288Z,102225.04
2018-12-29T04:37:16.240Z,102217.23
2018-12-29T04:38:18.263Z,102222.81
2018-12-29T04:39:20.305Z,102227.09
2018-12-29T04:40:22.324Z,102223.73
2018-12-29T04:41:24.294Z,102221.88
2018-12-29T04:42:26.237Z,102225.41
2018-12-29T04:43:28.289Z,102229.69
2018-12-29T04:44:30.278Z,102231.92
2018-12-29T04:45:32.234Z,102222.63
2018-12-29T04:46:34.292Z,102223.55
2018-12-29T04:47:36.324Z,102230.98
2018-12-29T04:48:38.267Z,102224.85
2018-12-29T04:49:40.342Z,102232.66
2018-12-29T04:50:42.320Z,102231.36
2018-12-29T04:51:44.269Z,102222.99
2018-12-29T04:52:46.220Z,102224.48
2018-12-29T04:53:48.158Z,102222.99
2018-12-29T04:54:50.146Z,102230.44
2018-12-29T04:55:52.172Z,102226.16
2018-12-29T04:56:56.352Z,102222.63
2018-12-29T04:57:58.406Z,102225.23
2018-12-29T04:59:00.346Z,102226.91
2018-12-29T05:00:02.387Z,102220.39
2018-12-29T05:01:04.412Z,102218.72
2018-12-29T05:02:06.431Z,102216.67
2018-12-29T05:03:11.392Z,102212.77
2018-12-29T05:04:13.335Z,102212.58
2018-12-29T05:05:15.380Z,102207.38
2018-12-29T05:06:17.331Z,102210.35
2018-12-29T05:07:19.348Z,102211.28
2018-12-29T05:08:21.286Z,102212.58
2018-12-29T05:09:23.230Z,102209.05
2018-12-29T05:10:25.372Z,102202.17
2018-12-29T05:11:27.382Z,102202.17
2018-12-29T05:12:29.336Z,102203.09
2018-12-29T05:13:31.248Z,102186.55
2018-12-29T05:14:33.190Z,102186.55
2018-12-29T05:15:35.126Z,102183.94
2018-12-29T05:16:37.062Z,102179.66
2018-12-29T05:17:40.292Z,102180.41
2018-12-29T05:18:42.228Z,102183.35
2018-12-29T05:19:44.182Z,102187.62
2018-12-29T05:20:46.156Z,102188.56
2018-12-29T05:21:48.095Z,102192.13
2018-12-29T05:22:50.038Z,102188.56
2018-12-29T05:23:52.052Z,102190.83
2018-12-29T05:24:54.072Z,102183.35
2018-12-29T05:25:56.036Z,102185.95
2018-12-29T05:26:57.991Z,102193.05
2018-12-29T05:27:59.999Z,102187.48
2018-12-29T05:29:01.940Z,102189.15
2018-12-29T05:30:03.953Z,102191.01
2018-12-29T05:31:05.932Z,102196.22
2018-12-29T05:32:08.454Z,102190.08
2018-12-29T05:33:10.391Z,102193.98
2018-12-29T05:34:12.408Z,102194.36
2018-12-29T05:35:15.282Z,102193.98
2018-12-29T05:36:17.500Z,102193.98
2018-12-29T05:37:19.446Z,102196.59
2018-12-29T05:38:21.396Z,102192.31
2018-12-29T05:39:23.331Z,102194.91
2018-12-29T05:40:25.266Z,102198.45
2018-12-29T05:41:27.222Z,102198.07
2018-12-29T05:42:29.162Z,102204.77
2018-12-29T05:43:31.097Z,102203.09
2018-12-29T05:44:33.043Z,102209.23
2018-12-29T05:45:34.985Z,102208.30
2018-12-29T05:46:36.964Z,102211.45
2018-12-29T05:47:38.919Z,102209.59
2018-12-29T05:48:40.964Z,102209.41
2018-12-29T05:49:43.063Z,102202.90
2018-12-29T05:50:45.113Z,102207.92
2018-12-29T05:51:47.089Z,102210.73
2018-12-29T05:52:51.828Z,102202.55
2018-12-29T05:53:53.845Z,102205.71
2018-12-29T05:54:55.797Z,102201.44
2018-12-29T05:55:57.737Z,102192.87
2018-12-29T05:56:59.701Z,102187.67
2018-12-29T05:58:01.635Z,102184.69
2018-12-29T05:59:03.582Z,102178.36
2018-12-29T06:00:05.613Z,102178.73
2018-12-29T06:01:07.575Z,102174.08
2018-12-29T06:02:09.554Z,102181.89
2018-12-29T06:03:11.481Z,102184.50
2018-12-29T06:04:13.453Z,102188.41
2018-12-29T06:05:15.396Z,102191.75
2018-12-29T06:06:17.334Z,102195.66
2018-12-29T06:07:19.377Z,102198.64
2018-12-29T06:08:21.401Z,102199.39
2018-12-29T06:09:23.345Z,102194.00
2018-12-29T06:10:25.357Z,102204.04
2018-12-29T06:11:27.373Z,102212.22
2018-12-29T06:12:29.341Z,102203.66
2018-12-29T06:13:31.285Z,102201.81
2018-12-29T06:14:33.236Z,102197.16
2018-12-29T06:15:35.237Z,102198.46
2018-12-29T06:16:37.199Z,102200.10
2018-12-29T06:17:39.161Z,102196.94
2018-12-29T06:18:41.105Z,102197.31
2018-12-29T06:19:43.052Z,102197.69
2018-12-29T06:20:48.357Z,102201.59
2018-12-29T06:21:50.294Z,102198.25
2018-12-29T06:22:52.261Z,102202.71
2018-12-29T06:23:54.219Z,102196.02
2018-12-29T06:24:56.229Z,102190.44
2018-12-29T06:25:58.157Z,102194.72
2018-12-29T06:27:00.162Z,102200.48
2018-12-29T06:28:02.128Z,102203.65
2018-12-29T06:29:04.096Z,102192.67
2018-12-29T06:30:06.096Z,102189.14
2018-12-29T06:31:08.031Z,102192.67
2018-12-29T06:32:09.963Z,102196.40
2018-12-29T06:33:11.930Z,102202.53
2018-12-29T06:34:14.799Z,102202.53
2018-12-29T06:35:17.856Z,102196.22
2018-12-29T06:36:19.905Z,102199.75
2018-12-29T06:37:21.835Z,102194.91
2018-12-29T06:38:23.815Z,102188.22
2018-12-29T06:39:25.758Z,102184.31
2018-12-29T06:40:27.711Z,102189.34
2018-12-29T06:41:29.652Z,102186.55
2018-12-29T06:42:31.596Z,102193.05
2018-12-29T06:43:33.549Z,102189.86
2018-12-29T06:44:35.487Z,102191.91
2018-12-29T06:45:37.427Z,102189.67
2018-12-29T06:46:39.359Z,102185.22
2018-12-29T06:47:41.303Z,102197.30
2018-12-29T06:48:43.345Z,102191.54
2018-12-29T06:49:45.311Z,102181.69
2018-12-29T06:50:47.237Z,102198.61
2018-12-29T06:51:49.174Z,102200.28
2018-12-29T06:52:53.311Z,102198.42
2018-12-29T06:53:55.371Z,102186.33
2018-12-29T06:54:57.309Z,102188.38
2018-12-29T06:55:59.265Z,102184.47
2018-12-29T06:57:01.235Z,102176.86
2018-12-29T06:58:03.331Z,102173.88
2018-12-29T06:59:05.367Z,102173.32
2018-12-29T07:00:07.306Z,102177.59
2018-12-29T07:01:09.301Z,102174.06
2018-12-29T07:02:11.259Z,102186.71
2018-12-29T07:03:13.194Z,102179.64
2018-12-29T07:04:16.033Z,102171.28
2018-12-29T07:05:18.078Z,102166.26
2018-12-29T07:06:20.090Z,102177.05
2018-12-29T07:07:22.031Z,102173.33
2018-12-29T07:08:24.474Z,102174.62
2018-12-29T07:09:26.463Z,102167.90
2018-12-29T07:10:28.531Z,102168.13
2018-12-29T07:11:30.550Z,102162.55
2018-12-29T07:12:32.506Z,102166.27
2018-12-29T07:13:37.930Z,102159.16
2018-12-29T07:14:39.978Z,102168.27
2018-12-29T07:15:42.258Z,102163.06
2018-12-29T07:16:44.270Z,102168.64
2018-12-29T07:17:46.221Z,102163.81
2018-12-29T07:18:48.238Z,102165.11
2018-12-29T07:19:50.208Z,102172.77
2018-12-29T07:20:52.150Z,102156.00
2018-12-29T07:21:54.098Z,102165.11
2018-12-29T07:22:56.089Z,102164.93
2018-12-29T07:23:58.087Z,102154.89
2018-12-29T07:25:00.167Z,102154.52
2018-12-29T07:26:02.167Z,102159.17
2018-12-29T07:27:04.098Z,102161.77
2018-12-29T07:28:06.042Z,102155.64
2018-12-29T07:29:07.969Z,102149.50
2018-12-29T07:30:09.935Z,102156.94
2018-12-29T07:31:11.865Z,102154.70
2018-12-29T07:32:13.820Z,102159.91
2018-12-29T07:33:15.769Z,102167.72
2018-12-29T07:34:17.785Z,102161.95
2018-12-29T07:35:19.764Z,102158.80
2018-12-29T07:36:21.714Z,102164.94
2018-12-29T07:37:23.712Z,102168.84
2018-12-29T07:38:25.666Z,102166.23
2018-12-29T07:39:27.690Z,102160.84
2018-12-29T07:40:30.685Z,102167.53
2018-12-29T07:41:32.623Z,102167.35
2018-12-29T07:42:34.556Z,102162.70
2018-12-29T07:43:36.502Z,102159.17
2018-12-29T07:44:38.468Z,102154.52
2018-12-29T07:45:43.190Z,102157.88
2018-12-29T07:46:49.543Z,102152.48
2018-12-29T07:47:48.796Z,102153.78
2018-12-29T07:48:50.750Z,102155.45
2018-12-29T07:49:52.678Z,102156.76
2018-12-29T07:50:54.635Z,102164.94
2018-12-29T07:51:56.591Z,102154.90
2018-12-29T07:52:58.538Z,102162.70
2018-12-29T07:54:00.480Z,102158.43
2018-12-29T07:55:02.427Z,102164.01
2018-12-29T07:56:04.476Z,102160.11
2018-12-29T07:57:06.484Z,102156.95
2018-12-29T07:58:08.432Z,102164.01
2018-12-29T07:59:10.398Z,102166.98
2018-12-29T08:00:12.341Z,102164.38
2018-12-29T08:01:14.302Z,102166.77
2018-12-29T08:02:16.252Z,102167.73
2018-12-29T08:03:18.194Z,102169.03
2018-12-29T08:04:20.134Z,102168.06
2018-12-29T08:05:22.079Z,102171.97
2018-12-29T08:06:24.123Z,102159.70
2018-12-29T08:07:26.059Z,102164.91
2018-12-29T08:08:28.002Z,102163.98
2018-12-29T08:09:29.939Z,102164.53
2018-12-29T08:10:31.887Z,102159.70
2018-12-29T08:11:33.888Z,102161.93
2018-12-29T08:12:35.832Z,102160.07
2018-12-29T08:13:37.792Z,102153.94
2018-12-29T08:14:40.073Z,102154.87
2018-12-29T08:15:42.019Z,102155.80
2018-12-29T08:16:44.017Z,102148.92
2018-12-29T08:17:45.962Z,102148.77
2018-12-29T08:18:49.289Z,102161.96
2018-12-29T08:19:51.215Z,102153.59
2018-12-29T08:20:53.151Z,102150.80
2018-12-29T08:21:55.130Z,102151.55
2018-12-29T08:22:57.069Z,102153.80
2018-12-29T08:23:59.073Z,102150.45
2018-12-29T08:25:01.015Z,102156.77
2018-12-29T08:26:02.961Z,102148.02
2018-12-29T08:27:04.921Z,102147.87
2018-12-29T08:28:06.874Z,102144.33
2018-12-29T08:29:08.884Z,102145.81
2018-12-29T08:30:10.899Z,102140.04
2018-12-29T08:31:12.918Z,102139.10
2018-12-29T08:32:14.962Z,102132.22
2018-12-29T08:33:16.910Z,102135.97
2018-12-29T08:34:18.844Z,102133.17
2018-12-29T08:35:20.780Z,102127.22
2018-12-29T08:36:22.746Z,102122.56
2018-12-29T08:37:24.799Z,102124.23
2018-12-29T08:38:26.800Z,102122.74
2018-12-29T08:39:28.763Z,102123.86
2018-12-29T08:40:30.772Z,102120.88
2018-12-29T08:41:32.727Z,102113.62
2018-12-29T08:42:34.702Z,102120.50
2018-12-29T08:43:36.632Z,102111.02
2018-12-29T08:44:38.610Z,102109.71
2018-12-29T08:45:40.593Z,102109.71
2018-12-29T08:46:42.594Z,102112.31
2018-12-29T08:47:44.575Z,102114.17
2018-12-29T08:48:46.573Z,102109.16
2018-12-29T08:49:48.512Z,102107.30
2018-12-29T08:50:50.454Z,102110.28
2018-12-29T08:51:52.392Z,102104.14
2018-12-29T08:52:54.354Z,102098.75
2018-12-29T08:53:56.297Z,102101.36
2018-12-29T08:54:58.238Z,102101.17
2018-12-29T08:56:00.183Z,102096.34
2018-12-29T08:57:02.140Z,102101.37
2018-12-29T08:58:04.112Z,102096.16
2018-12-29T08:59:08.010Z,102097.25
2018-12-29T09:00:09.703Z,102099.52
2018-12-29T09:01:11.647Z,102097.99
2018-12-29T09:02:13.614Z,102099.67
2018-12-29T09:03:15.647Z,102093.16
2018-12-29T09:04:17.602Z,102096.89
2018-12-29T09:05:19.538Z,102096.33
2018-12-29T09:06:21.517Z,102095.78
2018-12-29T09:07:23.528Z,102088.89
2018-12-29T09:08:26.762Z,102088.72
2018-12-29T09:09:28.728Z,102091.69
2018-12-29T09:10:30.742Z,102090.77
2018-12-29T09:11:32.762Z,102092.99
2018-12-29T09:12:34.765Z,102088.53
2018-12-29T09:13:36.733Z,102081.84
2018-12-29T09:14:38.667Z,102082.97
2018-12-29T09:15:41.183Z,102083.89
2018-12-29T09:16:43.379Z,102075.16
2018-12-29T09:17:45.390Z,102082.41
2018-12-29T09:18:49.832Z,102081.48
2018-12-29T09:19:51.026Z,102076.98
2018-12-29T09:20:53.054Z,102078.29
2018-12-29T09:21:54.997Z,102078.66
2018-12-29T09:22:57.020Z,102075.13
2018-12-29T09:23:58.998Z,102070.67
2018-12-29T09:25:00.970Z,102062.86
2018-12-29T09:26:02.916Z,102063.23
2018-12-29T09:27:04.942Z,102065.47
2018-12-29T09:28:06.889Z,102067.52
2018-12-29T09:29:08.949Z,102065.84
2018-12-29T09:30:12.554Z,102061.38
2018-12-29T09:31:14.564Z,102065.28
2018-12-29T09:32:16.522Z,102065.66
2018-12-29T09:33:18.459Z,102058.97
2018-12-29T09:34:22.542Z,102062.88
2018-12-29T09:35:24.117Z,102063.25
2018-12-29T09:36:26.121Z,102064.92
2018-12-29T09:37:28.132Z,102068.08
2018-12-29T09:38:30.070Z,102061.95
2018-12-29T09:39:32.039Z,102063.06
2018-12-29T09:40:34.107Z,102061.77
2018-12-29T09:41:36.118Z,102055.62
2018-12-29T09:42:38.060Z,102058.61
2018-12-29T09:43:40.070Z,102052.84
2018-12-29T09:44:42.065Z,102052.84
2018-12-29T09:45:44.077Z,102050.24
2018-12-29T09:46:46.082Z,102048.56
2018-12-29T09:47:48.031Z,102052.47
2018-12-29T09:48:49.971Z,102049.50
2018-12-29T09:49:51.933Z,102045.03
2018-12-29T09:50:53.875Z,102035.92
2018-12-29T09:51:57.258Z,102025.89
2018-12-29T09:52:59.299Z,102037.23
2018-12-29T09:54:01.320Z,102036.30
2018-12-29T09:55:03.273Z,102038.34
2018-12-29T09:56:05.244Z,102034.63
2018-12-29T09:57:07.184Z,102028.65
2018-12-29T09:58:09.130Z,102025.71
2018-12-29T09:59:11.074Z,102014.92
2018-12-29T10:00:13.117Z,102009.13
2018-12-29T10:01:15.071Z,102007.83
2018-12-29T10:02:17.016Z,102009.87
2018-12-29T10:03:18.968Z,102012.48
2018-12-29T10:04:20.974Z,102010.80
2018-12-29T10:05:22.954Z,102000.21
2018-12-29T10:06:24.882Z,101999.09
2018-12-29T10:07:26.848Z,101996.86
2018-12-29T10:08:28.877Z,101988.12
2018-12-29T10:09:30.941Z,101985.90
2018-12-29T10:10:32.902Z,101986.83
2018-12-29T10:11:35.365Z,101989.80
2018-12-29T10:12:37.508Z,101980.52
2018-12-29T10:13:39.521Z,101979.39
2018-12-29T10:14:41.530Z,101977.53
2018-12-29T10:15:43.506Z,101971.58
2018-12-29T10:16:45.438Z,101970.10
2018-12-29T10:17:47.400Z,101972.33
2018-12-29T10:18:49.343Z,101974.38
2018-12-29T10:19:51.374Z,101976.23
2018-12-29T10:20:53.426Z,101971.95
2018-12-29T10:21:55.391Z,101967.88
2018-12-29T10:22:57.415Z,101963.59
2018-12-29T10:23:59.442Z,101967.88
2018-12-29T10:25:01.554Z,101970.48
2018-12-29T10:26:03.587Z,101960.06
2018-12-29T10:27:05.526Z,101959.69
2018-12-29T10:28:07.480Z,101960.62
2018-12-29T10:29:09.426Z,101958.39
2018-12-29T10:30:11.438Z,101959.14
2018-12-29T10:31:13.437Z,101951.33
2018-12-29T10:32:15.516Z,101951.51
2018-12-29T10:33:17.571Z,101941.47
2018-12-29T10:34:19.589Z,101940.17
2018-12-29T10:35:21.595Z,101929.77
2018-12-29T10:36:23.671Z,101930.31
2018-12-29T10:37:25.623Z,101931.98
2018-12-29T10:38:27.650Z,101925.30
2018-12-29T10:39:29.583Z,101920.10
2018-12-29T10:40:34.385Z,101924.00
2018-12-29T10:41:36.356Z,101919.55
2018-12-29T10:42:38.370Z,101922.70
2018-12-29T10:43:40.387Z,101919.17
2018-12-29T10:44:42.338Z,101913.05
2018-12-29T10:45:44.293Z,101909.69
2018-12-29T10:46:46.338Z,101909.69
2018-12-29T10:47:48.320Z,101914.34
2018-12-29T10:48:50.321Z,101912.67
2018-12-29T10:49:52.349Z,101906.91
2018-12-29T10:50:54.313Z,101908.77
2018-12-29T10:51:56.354Z,101902.63
2018-12-29T10:52:58.386Z,101901.33
2018-12-29T10:54:01.284Z,101895.20
2018-12-29T10:55:03.520Z,101894.27
2018-12-29T10:56:05.573Z,101893.52
2018-12-29T10:57:07.638Z,101887.77
2018-12-29T10:58:09.683Z,101893.52
2018-12-29T10:59:11.723Z,101882.19
2018-12-29T11:00:13.667Z,101886.47
2018-12-29T11:01:15.677Z,101885.54
2018-12-29T11:02:17.689Z,101886.84
2018-12-29T11:03:19.647Z,101890.37
2018-12-29T11:04:22.006Z,101890.74
2018-12-29T11:05:24.091Z,101898.17
2018-12-29T11:06:26.030Z,101898.55
2018-12-29T11:07:28.036Z,101901.33
2018-12-29T11:08:30.017Z,101907.09
2018-12-29T11:09:31.964Z,101904.86
2018-12-29T11:10:33.969Z,101901.33
2018-12-29T11:11:35.985Z,101901.51
2018-12-29T11:12:38.027Z,101897.98
2018-12-29T11:13:40.031Z,101893.15
2018-12-29T11:14:41.995Z,101894.45
2018-12-29T11:15:43.935Z,101893.52
2018-12-29T11:16:45.903Z,101894.45
2018-12-29T11:17:47.882Z,101887.39
2018-12-29T11:18:49.959Z,101889.62
2018-12-29T11:19:52.015Z,101885.72
2018-12-29T11:20:54.036Z,101887.77
2018-12-29T11:21:55.981Z,101874.75
2018-12-29T11:22:57.952Z,101881.64
2018-12-29T11:23:59.969Z,101875.88
2018-12-29T11:25:01.903Z,101882.94
2018-12-29T11:26:03.839Z,101869.55
2018-12-29T11:27:05.793Z,101877.36
2018-12-29T11:28:07.845Z,101868.25
2018-12-29T11:29:09.781Z,101863.42
2018-12-29T11:30:11.730Z,101862.49
2018-12-29T11:31:13.755Z,101858.59
2018-12-29T11:32:15.708Z,101858.22
2018-12-29T11:33:17.720Z,101849.86
2018-12-29T11:34:19.685Z,101848.18
2018-12-29T11:35:28.553Z,101844.66
2018-12-29T11:36:25.302Z,101833.49
2018-12-29T11:37:27.330Z,101843.91
2018-12-29T11:38:29.365Z,101834.79
2018-12-29T11:39:31.383Z,101829.59
2018-12-29T11:40:33.335Z,101836.84
2018-12-29T11:41:35.276Z,101832.56
2018-12-29T11:42:37.231Z,101823.08
2018-12-29T11:43:39.221Z,101819.17
2018-12-29T11:44:41.242Z,101821.78
2018-12-29T11:45:43.199Z,101814.72
2018-12-29T11:46:45.138Z,101813.42
2018-12-29T11:47:50.014Z,101809.89
2018-12-29T11:48:50.782Z,101809.89